Time;durP1;ratioP1;P1;durP2;ratioP2;P2;SDS_P1;SDS_P2;PMS_P1;PMS_P2;Temp;Humidity;BMP_temperature;BMP_pressure;BME280_temperature;BME280_humidity;BME280_pressure;Samples;Min_cycle;Max_cycle;Signal;HPM_P1;HPM_P2
2024/02/05 00:01:10;;;;;;;;;;;;;;;15.49;42.28;100698.63;4889785;29;2349;-43
2024/02/05 00:03:36;;;;;;;;;;;;;;;17.27;39.24;100690.34;4902317;29;1134;-42
2024/02/05 00:06:02;;;;;;;;;;;;;;;16.62;40.13;100688.94;4902452;29;1084;-42
2024/02/05 00:08:28;;;;;;;;;;;;;;;15.82;41.54;100690.22;4902702;29;1062;-43
2024/02/05 00:10:53;;;;;;;;;;;;;;;17.78;37.85;100696.22;4898678;29;1903;-42
2024/02/05 00:13:21;;;;;;;;;;;;;;;16.54;39.98;100693.97;4893159;29;1051;-41
2024/02/05 00:15:47;;;;;;;;;;;;;;;15.91;41.75;100682.44;4900105;29;1015;-43
2024/02/05 00:18:12;;;;;;;;;;;;;;;15.67;41.87;100683.25;4884067;29;1050;-42
2024/02/05 00:20:38;;;;;;;;;;;;;;;17.09;39.70;100684.63;4899438;29;1162;-43
2024/02/05 00:23:04;;;;;;;;;;;;;;;16.94;39.42;100679.50;4902628;29;1081;-43
2024/02/05 00:25:30;;;;;;;;;;;;;;;15.93;41.53;100686.81;4889842;29;1193;-43
2024/02/05 00:27:55;;;;;;;;;;;;;;;16.88;39.88;100688.78;4901217;29;1101;-44
2024/02/05 00:30:21;;;;;;;;;;;;;;;16.87;39.68;100679.13;4894683;29;2412;-42
2024/02/05 00:32:46;;;;;;;;;;;;;;;15.85;41.79;100685.53;4902212;29;986;-45
2024/02/05 00:35:12;;;;;;;;;;;;;;;15.73;42.08;100684.59;4902671;29;1101;-42
2024/02/05 00:37:38;;;;;;;;;;;;;;;15.61;41.56;100677.53;4893653;29;1089;-42
2024/02/05 00:40:05;;;;;;;;;;;;;;;17.02;39.59;100668.28;4897931;29;1142;-45
2024/02/05 00:42:31;;;;;;;;;;;;;;;16.36;40.54;100672.25;4893461;29;1051;-42
2024/02/05 00:44:56;;;;;;;;;;;;;;;16.49;40.76;100662.44;4895860;29;1050;-44
2024/02/05 00:47:22;;;;;;;;;;;;;;;17.85;37.62;100660.13;4892356;29;1130;-45
2024/02/05 00:49:48;;;;;;;;;;;;;;;16.14;40.92;100655.25;4901031;29;1988;-42
2024/02/05 00:52:14;;;;;;;;;;;;;;;15.81;41.74;100657.56;4895860;29;1185;-44
2024/02/05 00:54:40;;;;;;;;;;;;;;;15.54;41.78;100645.28;4900871;29;1077;-44
2024/02/05 00:57:05;;;;;;;;;;;;;;;17.35;38.73;100625.97;4902454;29;1107;-45
2024/02/05 00:59:31;;;;;;;;;;;;;;;15.99;41.07;100625.38;4898877;29;2445;-42
2024/02/05 01:01:56;;;;;;;;;;;;;;;17.28;39.27;100633.56;4891702;29;1035;-43
2024/02/05 01:04:22;;;;;;;;;;;;;;;16.94;39.37;100633.47;4900549;29;1105;-43
2024/02/05 01:06:48;;;;;;;;;;;;;;;15.99;41.29;100626.22;4901581;29;999;-45
2024/02/05 01:09:14;;;;;;;;;;;;;;;15.76;41.59;100626.06;4901228;29;1171;-44
2024/02/05 01:11:39;;;;;;;;;;;;;;;16.52;40.60;100625.03;4891484;29;1975;-42
2024/02/05 01:14:05;;;;;;;;;;;;;;;16.70;39.90;100632.56;4897930;29;1213;-43
2024/02/05 01:16:30;;;;;;;;;;;;;;;15.79;41.95;100636.44;4896429;29;1260;-43
2024/02/05 01:18:56;;;;;;;;;;;;;;;17.56;38.43;100630.53;4900978;29;1045;-44
2024/02/05 01:21:21;;;;;;;;;;;;;;;16.39;40.55;100613.63;4901507;29;1042;-44
2024/02/05 01:23:48;;;;;;;;;;;;;;;15.77;41.51;100618.94;4900822;29;1023;-41
2024/02/05 01:26:14;;;;;;;;;;;;;;;16.80;40.27;100594.69;4901588;29;1089;-45
2024/02/05 01:28:39;;;;;;;;;;;;;;;15.89;41.51;100596.84;4901044;29;1117;-45
2024/02/05 01:31:08;;;;;;;;;;;;;;;16.20;41.30;100590.28;4886456;29;2623;-43
2024/02/05 01:33:34;;;;;;;;;;;;;;;17.00;39.32;100585.16;4897328;29;894;-43
2024/02/05 01:35:59;;;;;;;;;;;;;;;15.90;41.57;100573.78;4892290;29;1081;-42
2024/02/05 01:38:25;;;;;;;;;;;;;;;18.06;37.39;100563.56;4897693;29;1046;-46
2024/02/05 01:40:50;;;;;;;;;;;;;;;16.65;39.98;100555.91;4895651;29;1133;-44
2024/02/05 01:43:17;;;;;;;;;;;;;;;15.95;41.13;100544.28;4897494;29;1042;-46
2024/02/05 01:45:43;;;;;;;;;;;;;;;15.76;41.85;100545.63;4901327;29;1051;-47
2024/02/05 01:48:08;;;;;;;;;;;;;;;17.40;38.89;100533.34;4900812;29;1018;-46
2024/02/05 01:50:36;;;;;;;;;;;;;;;16.14;40.92;100539.34;4900927;29;1919;-44
2024/02/05 01:53:04;;;;;;;;;;;;;;;15.64;41.93;100524.34;4891603;29;1203;-44
2024/02/05 01:55:29;;;;;;;;;;;;;;;15.58;42.16;100514.16;4891704;29;1031;-44
2024/02/05 01:57:55;;;;;;;;;;;;;;;17.85;37.92;100513.78;4902729;29;1095;-44
2024/02/05 02:00:25;;;;;;;;;;;;;;;16.26;40.60;100512.84;4891064;29;2404;-44
2024/02/05 02:02:52;;;;;;;;;;;;;;;15.73;41.51;100511.38;4894567;29;1190;-43
2024/02/05 02:05:18;;;;;;;;;;;;;;;15.37;42.36;100509.47;4899864;29;1027;-43
2024/02/05 02:07:43;;;;;;;;;;;;;;;16.49;40.67;100500.47;4900518;29;1093;-42
2024/02/05 02:10:10;;;;;;;;;;;;;;;17.11;38.86;100497.53;4889228;29;1985;-43
2024/02/05 02:12:37;;;;;;;;;;;;;;;15.82;41.55;100488.63;4900925;29;1162;-45
2024/02/05 02:15:03;;;;;;;;;;;;;;;16.08;41.76;100485.88;4888253;29;1039;-45
2024/02/05 02:17:29;;;;;;;;;;;;;;;17.34;38.53;100489.50;4894816;29;1008;-44
2024/02/05 02:19:54;;;;;;;;;;;;;;;16.03;41.05;100479.09;4895679;29;1138;-42
2024/02/05 02:22:35;;;;;;;;;;;;;;;15.74;42.35;100478.59;4900818;29;1221;-44
2024/02/05 02:25:01;;;;;;;;;;;;;;;16.87;39.23;100471.88;4888224;29;972;-45
2024/02/05 02:27:26;;;;;;;;;;;;;;;15.96;41.19;100461.94;4894583;29;1489;-42
2024/02/05 02:29:52;;;;;;;;;;;;;;;15.58;42.16;100473.56;4898251;29;2418;-48
2024/02/05 02:32:34;;;;;;;;;;;;;;;16.56;40.65;100468.97;4900446;29;1130;-45
2024/02/05 02:35:00;;;;;;;;;;;;;;;17.20;38.83;100465.84;4891225;29;932;-46
2024/02/05 02:37:27;;;;;;;;;;;;;;;15.93;41.34;100463.97;4911845;29;1121;-43
2024/02/05 02:39:58;;;;;;;;;;;;;;;17.84;38.02;100487.31;4902687;29;1119;-45
2024/02/05 02:42:24;;;;;;;;;;;;;;;16.54;40.26;100476.22;4902611;29;851;-48
2024/02/05 02:44:50;;;;;;;;;;;;;;;15.89;41.27;100479.25;4906661;29;1046;-45
2024/02/05 02:47:15;;;;;;;;;;;;;;;15.61;41.86;100479.50;4921248;29;1051;-42
2024/02/05 02:49:41;;;;;;;;;;;;;;;16.60;40.68;100473.06;4902416;29;1899;-42
2024/02/05 02:52:06;;;;;;;;;;;;;;;17.17;38.85;100458.09;4898187;29;1038;-47
2024/02/05 02:54:32;;;;;;;;;;;;;;;15.88;41.28;100448.41;4903749;29;1190;-45
2024/02/05 02:56:57;;;;;;;;;;;;;;;15.64;42.16;100442.16;4898509;29;1083;-43
2024/02/05 02:59:23;;;;;;;;;;;;;;;17.12;39.11;100429.25;4887875;29;1989;-43
2024/02/05 03:01:48;;;;;;;;;;;;;;;16.80;39.38;100427.34;4888252;29;1075;-46
2024/02/05 03:04:14;;;;;;;;;;;;;;;15.97;41.65;100422.97;4900414;29;1080;-43
2024/02/05 03:06:39;;;;;;;;;;;;;;;15.59;42.26;100430.19;4893469;29;916;-45
2024/02/05 03:09:05;;;;;;;;;;;;;;;16.12;41.38;100426.28;4899546;29;1149;-46
2024/02/05 03:11:31;;;;;;;;;;;;;;;17.62;37.96;100446.50;4903485;29;1911;-43
2024/02/05 03:13:56;;;;;;;;;;;;;;;16.12;41.10;100439.56;4900923;29;1030;-44
2024/02/05 03:16:22;;;;;;;;;;;;;;;15.58;42.06;100439.09;4893314;29;1179;-47
2024/02/05 03:18:47;;;;;;;;;;;;;;;16.35;41.05;100429.84;4888441;29;1026;-45
2024/02/05 03:21:13;;;;;;;;;;;;;;;17.79;37.77;100428.31;4893124;29;1118;-44
2024/02/05 03:23:38;;;;;;;;;;;;;;;16.13;40.78;100418.22;4901077;29;1035;-44
2024/02/05 03:26:04;;;;;;;;;;;;;;;15.82;41.60;100412.56;4884401;29;1035;-47
2024/02/05 03:28:30;;;;;;;;;;;;;;;17.52;38.64;100411.03;4886877;29;1070;-44
2024/02/05 03:30:56;;;;;;;;;;;;;;;16.18;40.69;100399.31;4889423;29;1997;-43
2024/02/05 03:33:21;;;;;;;;;;;;;;;15.78;41.84;100385.41;4896931;29;1107;-45
2024/02/05 03:35:47;;;;;;;;;;;;;;;17.73;37.92;100384.44;4884287;29;1007;-48
2024/02/05 03:38:12;;;;;;;;;;;;;;;16.16;40.80;100385.31;4898734;29;1224;-43
2024/02/05 03:40:38;;;;;;;;;;;;;;;15.76;41.67;100379.41;4902906;29;1078;-42
2024/02/05 03:43:03;;;;;;;;;;;;;;;15.58;42.00;100381.59;4900518;29;914;-44
2024/02/05 03:45:30;;;;;;;;;;;;;;;17.13;39.46;100377.78;4884257;29;1389;-43
2024/02/05 03:47:55;;;;;;;;;;;;;;;16.86;39.47;100384.34;4898296;29;1109;-47
2024/02/05 03:50:21;;;;;;;;;;;;;;;15.93;41.49;100387.03;4902053;29;1981;-44
2024/02/05 03:52:46;;;;;;;;;;;;;;;16.84;40.13;100384.47;4889580;29;1185;-45
2024/02/05 03:55:12;;;;;;;;;;;;;;;16.68;39.79;100384.00;4895007;29;902;-44
2024/02/05 03:57:45;;;;;;;;;;;;;;;15.84;41.82;100377.97;4902315;29;1089;-45
2024/02/05 04:00:11;;;;;;;;;;;;;;;17.27;39.19;100371.31;4894655;29;2520;-43
2024/02/05 04:02:40;;;;;;;;;;;;;;;16.60;39.93;100373.97;4886599;29;1079;-44
2024/02/05 04:05:08;;;;;;;;;;;;;;;15.87;41.64;100365.31;4902584;29;1030;-42
2024/02/05 04:07:34;;;;;;;;;;;;;;;17.10;39.58;100365.59;4901188;29;1071;-47
2024/02/05 04:10:00;;;;;;;;;;;;;;;16.86;39.54;100368.38;4901918;29;1903;-43
2024/02/05 04:12:26;;;;;;;;;;;;;;;15.97;41.22;100365.44;4887590;29;1206;-42
2024/02/05 04:14:51;;;;;;;;;;;;;;;17.11;39.51;100361.97;4892058;29;1216;-45
2024/02/05 04:17:17;;;;;;;;;;;;;;;16.54;39.88;100364.69;4899796;29;1127;-43
2024/02/05 04:19:43;;;;;;;;;;;;;;;15.90;41.71;100364.22;4901069;29;892;-43
2024/02/05 04:22:12;;;;;;;;;;;;;;;16.92;39.85;100364.38;4901889;29;1148;-45
2024/02/05 04:24:37;;;;;;;;;;;;;;;17.63;37.80;100369.25;4893414;29;1146;-44
2024/02/05 04:27:03;;;;;;;;;;;;;;;16.27;40.80;100377.34;4898952;29;1063;-42
2024/02/05 04:29:30;;;;;;;;;;;;;;;15.83;41.41;100357.72;4899888;29;2458;-45
2024/02/05 04:31:56;;;;;;;;;;;;;;;17.05;39.50;100353.63;4893077;29;1934;-42
2024/02/05 04:34:21;;;;;;;;;;;;;;;17.02;39.09;100354.69;4892569;29;1081;-42
2024/02/05 04:36:49;;;;;;;;;;;;;;;16.06;41.34;100357.78;4899194;29;959;-44
2024/02/05 04:39:14;;;;;;;;;;;;;;;15.67;41.59;100359.72;4892469;29;1170;-42
2024/02/05 04:41:40;;;;;;;;;;;;;;;17.79;37.86;100369.78;4898527;29;1003;-41
2024/02/05 04:44:05;;;;;;;;;;;;;;;16.32;40.52;100370.81;4883050;29;1019;-43
2024/02/05 04:46:31;;;;;;;;;;;;;;;15.71;41.99;100380.69;4893467;29;1105;-43
2024/02/05 04:48:57;;;;;;;;;;;;;;;15.59;41.74;100385.97;4891846;29;1174;-48
2024/02/05 04:51:23;;;;;;;;;;;;;;;16.19;41.18;100395.69;4902046;29;1978;-46
2024/02/05 04:53:48;;;;;;;;;;;;;;;18.13;37.36;100395.38;4896840;29;1019;-48
2024/02/05 04:56:13;;;;;;;;;;;;;;;16.38;40.67;100387.13;4899057;29;1007;-49
2024/02/05 04:58:39;;;;;;;;;;;;;;;15.86;41.89;100400.78;4883247;29;975;-45
2024/02/05 05:01:04;;;;;;;;;;;;;;;17.50;38.31;100408.47;4897418;29;2467;-47
2024/02/05 05:03:33;;;;;;;;;;;;;;;16.20;40.98;100405.31;4892981;29;1069;-47
2024/02/05 05:05:59;;;;;;;;;;;;;;;15.65;42.11;100411.16;4883858;29;1011;-47
2024/02/05 05:08:24;;;;;;;;;;;;;;;15.49;42.02;100404.38;4891090;29;1062;-46
2024/02/05 05:10:50;;;;;;;;;;;;;;;16.96;39.82;100401.22;4893604;29;1986;-47
2024/02/05 05:13:16;;;;;;;;;;;;;;;15.85;41.92;100404.38;4900051;29;1087;-49
2024/02/05 05:15:41;;;;;;;;;;;;;;;15.51;42.04;100405.09;4890323;29;1178;-48
2024/02/05 05:18:07;;;;;;;;;;;;;;;17.03;39.30;100393.63;4887745;29;1090;-49
2024/02/05 05:20:32;;;;;;;;;;;;;;;16.76;39.51;100398.34;4890063;29;1131;-47
2024/02/05 05:22:58;;;;;;;;;;;;;;;16.49;40.13;100393.41;4888677;29;1119;-48
2024/02/05 05:25:23;;;;;;;;;;;;;;;16.20;40.54;100393.88;4901359;29;1045;-47
2024/02/05 05:27:49;;;;;;;;;;;;;;;16.01;41.07;100389.97;4900990;29;1103;-47
2024/02/05 05:30:15;;;;;;;;;;;;;;;15.84;41.34;100389.41;4895166;29;2890;-43
2024/02/05 05:32:40;;;;;;;;;;;;;;;15.68;41.89;100387.09;4899811;29;1046;-46
2024/02/05 05:35:06;;;;;;;;;;;;;;;15.58;41.71;100389.56;4901414;29;1194;-50
2024/02/05 05:37:32;;;;;;;;;;;;;;;15.41;42.23;100385.53;4888401;29;1070;-48
2024/02/05 05:39:57;;;;;;;;;;;;;;;15.32;42.57;100389.69;4915242;29;1067;-48
2024/02/05 05:42:23;;;;;;;;;;;;;;;15.27;42.65;100389.19;4898085;29;1090;-46
2024/02/05 05:44:48;;;;;;;;;;;;;;;16.75;39.40;100383.38;4887796;29;1109;-47
2024/02/05 05:47:14;;;;;;;;;;;;;;;16.87;39.06;100380.69;4901334;29;994;-47
2024/02/05 05:49:39;;;;;;;;;;;;;;;16.07;40.72;100375.38;4888202;29;1911;-48
2024/02/05 05:52:05;;;;;;;;;;;;;;;15.83;41.19;100378.94;4889008;29;1151;-48
2024/02/05 05:54:31;;;;;;;;;;;;;;;15.57;41.59;100382.56;4897489;29;1226;-47
2024/02/05 05:56:57;;;;;;;;;;;;;;;15.39;42.23;100385.66;4893009;29;1042;-46
2024/02/05 05:59:23;;;;;;;;;;;;;;;16.21;40.49;100387.59;4894761;29;2418;-48
2024/02/05 06:01:48;;;;;;;;;;;;;;;17.38;38.13;100386.41;4882315;29;1189;-45
2024/02/05 06:04:14;;;;;;;;;;;;;;;16.42;39.67;100387.72;4910239;29;1031;-45
2024/02/05 06:06:40;;;;;;;;;;;;;;;16.01;40.80;100392.63;4897126;29;1010;-47
2024/02/05 06:09:05;;;;;;;;;;;;;;;15.73;41.37;100392.03;4895839;29;1135;-46
2024/02/05 06:11:34;;;;;;;;;;;;;;;15.51;41.96;100391.00;4892918;29;2269;-43
2024/02/05 06:13:59;;;;;;;;;;;;;;;15.64;41.90;100391.78;4895200;29;1030;-46
2024/02/05 06:16:25;;;;;;;;;;;;;;;17.10;38.65;100391.34;4901032;29;1059;-50
2024/02/05 06:18:50;;;;;;;;;;;;;;;16.67;39.13;100387.59;4896229;29;1066;-49
2024/02/05 06:21:16;;;;;;;;;;;;;;;16.00;40.62;100396.22;4889438;29;1139;-46
2024/02/05 06:23:41;;;;;;;;;;;;;;;15.71;41.16;100397.47;4900088;29;1045;-47
2024/02/05 06:26:09;;;;;;;;;;;;;;;15.50;41.96;100397.22;4900532;29;1097;-46
2024/02/05 06:28:34;;;;;;;;;;;;;;;15.33;42.02;100393.19;4899647;29;1073;-46
2024/02/05 06:31:00;;;;;;;;;;;;;;;16.79;39.43;100401.72;4893362;29;2822;-51
2024/02/05 06:33:25;;;;;;;;;;;;;;;17.09;38.51;100400.25;4888070;29;1054;-49
2024/02/05 06:35:51;;;;;;;;;;;;;;;16.20;40.19;100394.69;4893847;29;1129;-48
2024/02/05 06:38:17;;;;;;;;;;;;;;;15.87;40.88;100405.09;4894788;29;1066;-46
2024/02/05 06:40:42;;;;;;;;;;;;;;;15.60;41.47;100400.91;4900968;29;1249;-44
2024/02/05 06:43:08;;;;;;;;;;;;;;;15.40;42.30;100389.13;4900816;29;1042;-46
2024/02/05 06:45:37;;;;;;;;;;;;;;;16.61;39.72;100389.78;4903586;29;1079;-46
2024/02/05 06:48:03;;;;;;;;;;;;;;;17.30;38.04;100376.38;4903574;29;1117;-47
2024/02/05 06:50:28;;;;;;;;;;;;;;;16.24;40.39;100374.94;4903624;29;1902;-45
2024/02/05 06:52:54;;;;;;;;;;;;;;;15.84;41.15;100372.66;4891312;29;1162;-47
2024/02/05 06:55:19;;;;;;;;;;;;;;;15.59;41.68;100364.75;4898212;29;1098;-48
2024/02/05 06:57:45;;;;;;;;;;;;;;;15.39;42.10;100372.41;4898996;29;1162;-49
2024/02/05 07:00:12;;;;;;;;;;;;;;;15.36;42.34;100374.41;4895883;29;2349;-47
2024/02/05 07:02:38;;;;;;;;;;;;;;;16.90;39.06;100369.81;4897467;29;1214;-47
2024/02/05 07:05:03;;;;;;;;;;;;;;;16.96;38.67;100371.16;4893456;29;1147;-49
2024/02/05 07:07:29;;;;;;;;;;;;;;;16.11;40.43;100371.53;4902824;29;1482;-49
2024/02/05 07:09:55;;;;;;;;;;;;;;;15.82;41.34;100362.16;4903970;29;1907;-47
2024/02/05 07:12:20;;;;;;;;;;;;;;;15.58;41.87;100348.97;4901769;29;1050;-46
2024/02/05 07:14:46;;;;;;;;;;;;;;;15.39;42.13;100356.50;4885032;29;1039;-43
2024/02/05 07:17:14;;;;;;;;;;;;;;;15.75;41.66;100353.81;4899186;29;1062;-45
2024/02/05 07:19:40;;;;;;;;;;;;;;;17.15;38.56;100357.22;4895980;29;1148;-46
2024/02/05 07:22:07;;;;;;;;;;;;;;;16.67;39.01;100350.41;4884798;29;1022;-50
2024/02/05 07:24:32;;;;;;;;;;;;;;;15.95;40.90;100334.72;4893344;29;1062;-51
2024/02/05 07:26:59;;;;;;;;;;;;;;;15.69;41.27;100329.56;4903199;29;995;-48
2024/02/05 07:29:25;;;;;;;;;;;;;;;15.51;41.66;100330.03;4901439;29;2467;-47
2024/02/05 07:31:50;;;;;;;;;;;;;;;15.33;41.97;100326.94;4899070;29;1903;-47
2024/02/05 07:34:16;;;;;;;;;;;;;;;16.55;39.88;100323.88;4902992;29;1097;-51
2024/02/05 07:36:41;;;;;;;;;;;;;;;17.14;38.11;100328.97;4888148;29;1093;-46
2024/02/05 07:39:08;;;;;;;;;;;;;;;16.22;40.23;100329.09;4884550;29;1102;-49
2024/02/05 07:41:33;;;;;;;;;;;;;;;15.82;41.38;100325.03;4899317;29;1000;-47
2024/02/05 07:43:59;;;;;;;;;;;;;;;15.51;41.94;100322.91;4895077;29;1058;-48
2024/02/05 07:46:24;;;;;;;;;;;;;;;15.38;42.12;100319.50;4914111;29;1131;-49
2024/02/05 07:48:50;;;;;;;;;;;;;;;15.77;41.22;100317.44;4902629;29;1178;-46
2024/02/05 07:51:17;;;;;;;;;;;;;;;17.09;38.74;100301.94;4900202;29;1903;-51
2024/02/05 07:53:42;;;;;;;;;;;;;;;16.64;39.37;100307.22;4892817;29;1026;-45
2024/02/05 07:56:10;;;;;;;;;;;;;;;16.04;40.66;100315.44;4894872;29;1418;-50
2024/02/05 07:58:38;;;;;;;;;;;;;;;15.67;41.56;100325.25;4902268;29;1093;-48
2024/02/05 08:01:04;;;;;;;;;;;;;;;15.51;41.75;100348.56;4900418;29;1896;-47
2024/02/05 08:03:30;;;;;;;;;;;;;;;15.78;41.63;100347.47;4892780;29;1024;-48
2024/02/05 08:05:56;;;;;;;;;;;;;;;17.15;38.68;100354.56;4902257;29;972;-50
2024/02/05 08:08:22;;;;;;;;;;;;;;;16.65;39.22;100346.06;4892958;29;831;-47
2024/02/05 08:10:47;;;;;;;;;;;;;;;16.02;40.48;100346.56;4898495;29;1970;-46
2024/02/05 08:13:13;;;;;;;;;;;;;;;15.73;41.36;100339.81;4894407;29;1089;-46
2024/02/05 08:15:38;;;;;;;;;;;;;;;15.53;41.69;100346.66;4896144;29;1046;-48
2024/02/05 08:18:04;;;;;;;;;;;;;;;15.40;41.98;100349.34;4883998;29;1035;-48
2024/02/05 08:20:29;;;;;;;;;;;;;;;16.84;39.15;100346.41;4897480;29;1099;-51
2024/02/05 08:22:55;;;;;;;;;;;;;;;17.31;38.28;100353.31;4901917;29;1026;-49
2024/02/05 08:25:21;;;;;;;;;;;;;;;16.31;40.21;100358.53;4902132;29;1201;-51
2024/02/05 08:27:46;;;;;;;;;;;;;;;15.84;41.33;100359.38;4893878;29;1128;-50
2024/02/05 08:30:12;;;;;;;;;;;;;;;15.68;41.54;100363.22;4883355;29;2423;-50
2024/02/05 08:32:38;;;;;;;;;;;;;;;15.53;41.63;100357.25;4902321;29;867;-49
2024/02/05 08:35:03;;;;;;;;;;;;;;;16.07;40.72;100359.47;4883665;29;1020;-48
2024/02/05 08:37:29;;;;;;;;;;;;;;;17.25;38.24;100360.81;4891098;29;1051;-52
2024/02/05 08:39:54;;;;;;;;;;;;;;;16.34;39.87;100359.13;4897666;29;984;-47
2024/02/05 08:42:20;;;;;;;;;;;;;;;15.88;41.16;100355.56;4902027;29;1117;-51
2024/02/05 08:44:45;;;;;;;;;;;;;;;15.61;41.50;100344.28;4896848;29;1220;-49
2024/02/05 08:47:13;;;;;;;;;;;;;;;15.47;42.06;100358.56;4890311;29;1170;-52
2024/02/05 08:49:39;;;;;;;;;;;;;;;15.94;41.21;100357.72;4900860;29;1086;-48
2024/02/05 08:52:05;;;;;;;;;;;;;;;17.21;38.55;100362.06;4908418;29;1968;-50
2024/02/05 08:54:35;;;;;;;;;;;;;;;16.65;39.34;100347.88;4884892;29;1039;-48
2024/02/05 08:57:03;;;;;;;;;;;;;;;16.00;40.46;100343.16;4898596;29;928;-48
2024/02/05 08:59:30;;;;;;;;;;;;;;;15.71;41.52;100332.97;4898402;29;2441;-47
2024/02/05 09:01:56;;;;;;;;;;;;;;;15.50;41.76;100345.06;4883243;29;1016;-51
2024/02/05 09:04:25;;;;;;;;;;;;;;;15.40;42.21;100334.31;4897854;29;1182;-48
2024/02/05 09:06:50;;;;;;;;;;;;;;;16.36;40.35;100335.13;4891232;29;1099;-50
2024/02/05 09:09:16;;;;;;;;;;;;;;;17.29;38.35;100337.50;4894250;29;1113;-47
2024/02/05 09:11:41;;;;;;;;;;;;;;;16.34;40.15;100329.94;4892285;29;1895;-50
2024/02/05 09:14:07;;;;;;;;;;;;;;;15.87;41.30;100322.03;4901343;29;1018;-53
2024/02/05 09:16:33;;;;;;;;;;;;;;;15.67;41.59;100319.94;4901334;29;1069;-48
2024/02/05 09:18:58;;;;;;;;;;;;;;;15.46;41.92;100300.34;4888569;29;1062;-47
2024/02/05 09:21:24;;;;;;;;;;;;;;;16.27;40.51;100318.09;4892053;29;932;-49
2024/02/05 09:23:49;;;;;;;;;;;;;;;17.38;38.23;100309.31;4897501;29;1031;-49
2024/02/05 09:26:15;;;;;;;;;;;;;;;16.67;39.35;100298.16;4901064;29;1058;-49
2024/02/05 09:28:42;;;;;;;;;;;;;;;16.07;40.57;100280.72;4898139;29;1127;-47
2024/02/05 09:31:08;;;;;;;;;;;;;;;15.79;41.19;100298.75;4897171;29;2666;-44
2024/02/05 09:33:34;;;;;;;;;;;;;;;15.46;42.06;100272.06;4898544;29;1110;-46
2024/02/05 09:36:00;;;;;;;;;;;;;;;15.41;41.95;100271.56;4900722;29;1133;-47
2024/02/05 09:38:25;;;;;;;;;;;;;;;16.48;40.16;100273.06;4897964;29;998;-48
2024/02/05 09:41:03;;;;;;;;;;;;;;;17.27;38.37;100270.31;4892658;29;1135;-46
2024/02/05 09:43:28;;;;;;;;;;;;;;;16.27;40.40;100271.19;4901060;29;1058;-49
2024/02/05 09:45:54;;;;;;;;;;;;;;;15.89;40.98;100275.00;4911767;29;914;-48
2024/02/05 09:48:20;;;;;;;;;;;;;;;15.63;41.71;100268.09;4898017;29;1235;-46
2024/02/05 09:50:45;;;;;;;;;;;;;;;15.42;41.85;100267.94;4891549;29;1982;-48
2024/02/05 09:53:11;;;;;;;;;;;;;;;15.28;42.45;100279.59;4900760;29;1233;-48
2024/02/05 09:55:36;;;;;;;;;;;;;;;16.65;39.93;100268.22;4890527;29;1118;-48
2024/02/05 09:58:02;;;;;;;;;;;;;;;17.12;38.46;100270.63;4887263;29;1090;-47
2024/02/05 10:00:27;;;;;;;;;;;;;;;16.25;40.19;100256.31;4915279;29;2405;-49
2024/02/05 10:02:53;;;;;;;;;;;;;;;15.82;41.07;100250.75;4899620;29;1139;-48
2024/02/05 10:05:19;;;;;;;;;;;;;;;15.60;41.94;100255.06;4900665;29;1057;-48
2024/02/05 10:07:48;;;;;;;;;;;;;;;15.46;41.76;100253.50;4911861;29;1252;-49
2024/02/05 10:10:14;;;;;;;;;;;;;;;15.47;42.44;100251.66;4882006;29;1974;-49
2024/02/05 10:12:40;;;;;;;;;;;;;;;16.91;39.26;100249.31;4899187;29;1170;-49
2024/02/05 10:15:06;;;;;;;;;;;;;;;16.86;39.10;100247.03;4900855;29;999;-48
2024/02/05 10:17:32;;;;;;;;;;;;;;;16.12;40.75;100245.84;4900494;29;1038;-46
2024/02/05 10:19:59;;;;;;;;;;;;;;;15.78;41.20;100241.38;4893864;29;1157;-48
2024/02/05 10:22:25;;;;;;;;;;;;;;;15.59;41.76;100239.28;4917254;29;1107;-51
2024/02/05 10:24:50;;;;;;;;;;;;;;;15.43;42.39;100236.00;4893248;29;1110;-48
2024/02/05 10:27:20;;;;;;;;;;;;;;;16.89;39.37;100227.34;4903512;29;1163;-47
2024/02/05 10:29:45;;;;;;;;;;;;;;;16.80;39.15;100234.25;4896919;29;2459;-48
2024/02/05 10:32:11;;;;;;;;;;;;;;;16.05;40.98;100229.56;4898077;29;1981;-48
2024/02/05 10:34:36;;;;;;;;;;;;;;;15.78;41.61;100231.59;4903190;29;917;-48
2024/02/05 10:37:10;;;;;;;;;;;;;;;15.54;42.05;100232.53;4904063;29;1041;-45
2024/02/05 10:39:35;;;;;;;;;;;;;;;15.38;42.12;100238.16;4903727;29;1098;-48
2024/02/05 10:42:01;;;;;;;;;;;;;;;16.57;40.18;100242.28;4903317;29;1043;-45
2024/02/05 10:44:26;;;;;;;;;;;;;;;17.29;38.68;100235.63;4896755;29;1204;-47
2024/02/05 10:46:52;;;;;;;;;;;;;;;16.31;40.49;100247.03;4896981;29;1244;-47
2024/02/05 10:49:17;;;;;;;;;;;;;;;15.89;41.58;100252.00;4898674;29;1234;-46
2024/02/05 10:51:43;;;;;;;;;;;;;;;15.74;41.58;100235.47;4904064;29;1973;-47
2024/02/05 10:54:09;;;;;;;;;;;;;;;15.50;42.07;100249.63;4903458;29;1014;-47
2024/02/05 10:56:34;;;;;;;;;;;;;;;15.37;42.46;100243.56;4899499;29;1174;-46
2024/02/05 10:59:03;;;;;;;;;;;;;;;16.74;39.79;100245.38;4915174;29;1137;-47
2024/02/05 11:01:32;;;;;;;;;;;;;;;17.16;38.77;100234.00;4902927;29;1905;-44
2024/02/05 11:04:01;;;;;;;;;;;;;;;16.28;40.55;100232.22;4918617;29;1054;-47
2024/02/05 11:06:28;;;;;;;;;;;;;;;15.89;41.60;100224.59;4911978;29;1037;-47
2024/02/05 11:08:53;;;;;;;;;;;;;;;15.67;41.89;100220.97;4893947;29;1175;-45
2024/02/05 11:11:19;;;;;;;;;;;;;;;15.53;42.19;100211.47;4912057;29;1974;-47
2024/02/05 11:13:51;;;;;;;;;;;;;;;16.07;41.12;100201.13;4896228;29;1115;-49
2024/02/05 11:16:17;;;;;;;;;;;;;;;17.31;38.70;100202.63;4903551;29;1404;-50
2024/02/05 11:18:45;;;;;;;;;;;;;;;16.45;40.18;100200.81;4890820;29;1066;-47
2024/02/05 11:21:11;;;;;;;;;;;;;;;16.02;41.36;100205.94;4902031;29;1135;-46
2024/02/05 11:23:37;;;;;;;;;;;;;;;15.69;42.04;100202.28;4897484;29;1122;-53
2024/02/05 11:26:02;;;;;;;;;;;;;;;15.54;42.60;100214.00;4918313;29;1050;-46
2024/02/05 11:28:28;;;;;;;;;;;;;;;15.40;42.67;100204.44;4917689;29;1047;-47
2024/02/05 11:30:57;;;;;;;;;;;;;;;16.83;39.98;100209.25;4901941;29;2798;-48
2024/02/05 11:33:26;;;;;;;;;;;;;;;17.05;38.89;100194.19;4897933;29;1011;-45
2024/02/05 11:35:54;;;;;;;;;;;;;;;16.23;40.85;100206.03;4890994;29;1169;-44
2024/02/05 11:38:20;;;;;;;;;;;;;;;15.86;41.92;100222.19;4902717;29;1093;-44
2024/02/05 11:40:48;;;;;;;;;;;;;;;15.60;42.33;100190.63;4895537;29;1141;-46
2024/02/05 11:43:13;;;;;;;;;;;;;;;15.47;42.67;100188.91;4884616;29;1767;-45
2024/02/05 11:45:39;;;;;;;;;;;;;;;16.49;40.56;100199.59;4890648;29;2664;-43
2024/02/05 11:48:05;;;;;;;;;;;;;;;17.27;38.90;100195.06;4888727;29;1182;-45
2024/02/05 11:50:31;;;;;;;;;;;;;;;16.36;40.32;100195.28;4892342;29;1907;-44
2024/02/05 11:52:56;;;;;;;;;;;;;;;15.90;41.74;100187.34;4902886;29;1570;-45
2024/02/05 11:55:23;;;;;;;;;;;;;;;15.67;42.07;100176.75;4902104;29;1047;-40
2024/02/05 11:57:51;;;;;;;;;;;;;;;15.48;42.47;100184.47;4894413;29;1237;-40
2024/02/05 12:00:17;;;;;;;;;;;;;;;15.35;43.06;100172.13;4894680;29;1226;-41
2024/02/05 12:02:43;;;;;;;;;;;;;;;16.43;40.80;100194.78;4883596;29;1041;-42
2024/02/05 12:05:09;;;;;;;;;;;;;;;17.44;38.61;100188.28;4889100;29;2441;-43
2024/02/05 12:07:34;;;;;;;;;;;;;;;16.54;40.21;100189.44;4897441;29;1905;-45
2024/02/05 12:10:00;;;;;;;;;;;;;;;16.07;41.54;100187.00;4894401;29;1968;-44
2024/02/05 12:12:25;;;;;;;;;;;;;;;15.73;42.21;100161.31;4895770;29;2191;-43
2024/02/05 12:14:51;;;;;;;;;;;;;;;15.58;42.79;100171.34;4896301;29;2080;-47
2024/02/05 12:17:18;;;;;;;;;;;;;;;15.47;42.79;100175.66;4892782;29;1914;-47
2024/02/05 12:19:43;;;;;;;;;;;;;;;15.71;42.71;100152.66;4896110;29;2156;-43
2024/02/05 12:22:09;;;;;;;;;;;;;;;17.08;39.58;100191.25;4900307;29;1022;-43
2024/02/05 12:24:34;;;;;;;;;;;;;;;16.79;39.91;100157.34;4913797;29;1125;-45
2024/02/05 12:27:00;;;;;;;;;;;;;;;16.12;41.34;100164.44;4912890;29;1155;-47
2024/02/05 12:29:25;;;;;;;;;;;;;;;15.78;42.36;100154.69;4902346;29;1059;-48
2024/02/05 12:31:55;;;;;;;;;;;;;;;15.57;42.45;100170.47;4902135;29;1915;-44
2024/02/05 12:34:20;;;;;;;;;;;;;;;15.41;42.92;100166.34;4901401;29;1027;-46
2024/02/05 12:36:46;;;;;;;;;;;;;;;15.53;42.94;100166.41;4901414;29;1018;-43
2024/02/05 12:39:11;;;;;;;;;;;;;;;16.93;39.82;100165.00;4901987;29;1038;-44
2024/02/05 12:41:37;;;;;;;;;;;;;;;16.91;39.75;100174.91;4901637;29;1140;-42